KJZI

Details ICAO KJZI
Name Charleston Executive
Region United States
Timezone America/New_York (UTC-5.0)
Plans Departing 20
Arriving 32
Stats Elevation 17 ft / 5 m (AMSL)
Location 32.700788° -80.002515°
Runways 2
Magnetic Variation 7.883° W
Sunrise 2017-12-18 12:18:07 UTC / 2017-12-18 07:18:07 Local
Sunset 2017-12-18 22:18:03 UTC / 2017-12-18 17:18:03 Local
Advertisement - Login to hide

Runways

ID Width Length Bearing (true) Bearing (mag) Surface Threshold Offset Overrun Length
04 151 ft / 46 m 4,317 ft / 1,316 m 33.10° 40.98° Concrete 0 ft / 0 m 0 ft / 0 m
09 98 ft / 30 m 5,355 ft / 1,632 m 89.24° 97.12° Concrete 0 ft / 0 m 0 ft / 0 m
22 151 ft / 46 m 4,317 ft / 1,316 m 213.10° 220.98° Concrete 0 ft / 0 m 551 ft / 168 m
27 98 ft / 30 m 5,355 ft / 1,632 m 269.25° 277.13° Concrete 0 ft / 0 m 0 ft / 0 m

Approach Navaids

Runway Type Ident Frequency Range Bearing (true) Bearing (mag) Slope Elevation
09 Localiser IETI 110.70 MHz 18 nm / 33 km 86.00° 93.88° - 17 ft / 5 m (AMSL)

Map

Weather


0- 5 10 15 20 25 30 35+ Temperature / ° C

Clouds and Precipitation
Forecast for 2017-12-18 12:00 UTC. Updated 2 hours ago

Ground ~20,000 ft ~40,000 ft Winds

METAR

KJZI 180915Z AUTO 23006KT 10SM BKN050 OVC055 17/15 A3018 RMK AO2

TAF

Not found

Frequencies

Recorded 123.77 MHz AWOS 3
Clearance 127.15 MHz CLNC DEL
Unicom 122.80 MHz CTAF/UNICOM
Approach 120.70 MHz APP/DEP
Warning: Do not use this data for real-world aviation or navigation. No guarantee of current accuracy is given.